createdAt,value
2019-01-31T00:00:02.527Z,9.20
2019-01-31T00:02:39.951Z,9.20
2019-01-31T00:05:14.792Z,9.00
2019-01-31T00:08:06.072Z,9.10
2019-01-31T00:11:02.033Z,8.90
2019-01-31T00:13:53.166Z,8.90
2019-01-31T00:16:25.272Z,8.90
2019-01-31T00:19:23.982Z,9.20
2019-01-31T00:22:21.595Z,9.30
2019-01-31T00:24:59.594Z,9.20
2019-01-31T00:27:49.496Z,9.00
2019-01-31T00:30:36.769Z,9.20
2019-01-31T00:33:37.155Z,9.40
2019-01-31T00:36:23.304Z,9.30
2019-01-31T00:39:28.459Z,9.10
2019-01-31T00:42:12.096Z,9.00
2019-01-31T00:45:01.817Z,9.30
2019-01-31T00:47:53.641Z,9.40
2019-01-31T00:50:28.378Z,9.20
2019-01-31T00:53:00.455Z,9.20
2019-01-31T00:55:56.523Z,9.30
2019-01-31T00:58:42.706Z,9.40
2019-01-31T01:01:26.272Z,9.50
2019-01-31T01:04:06.885Z,9.30
2019-01-31T01:07:00.994Z,9.30
2019-01-31T01:09:44.113Z,9.20
2019-01-31T01:12:18.586Z,9.30
2019-01-31T01:14:53.246Z,8.90
2019-01-31T01:17:31.018Z,8.80
2019-01-31T01:20:11.809Z,8.70
2019-01-31T01:22:49.781Z,8.60
2019-01-31T01:25:24.385Z,8.60
2019-01-31T01:27:59.575Z,8.50
2019-01-31T01:31:03.051Z,8.50
2019-01-31T01:34:05.285Z,8.50
2019-01-31T01:37:11.802Z,8.40
2019-01-31T01:39:46.280Z,8.50
2019-01-31T01:42:33.007Z,8.40
2019-01-31T01:45:10.580Z,8.30
2019-01-31T01:47:42.315Z,8.40
2019-01-31T01:50:26.189Z,8.50
2019-01-31T01:53:04.458Z,8.60
2019-01-31T01:55:57.420Z,8.50
2019-01-31T01:58:40.891Z,8.80
2019-01-31T02:01:31.077Z,8.60
2019-01-31T02:04:05.441Z,8.70
2019-01-31T02:06:43.181Z,8.90
2019-01-31T02:09:34.560Z,8.90
2019-01-31T02:12:12.381Z,8.90
2019-01-31T02:14:47.100Z,8.80
2019-01-31T02:17:44.960Z,8.80
2019-01-31T02:20:25.503Z,8.70
2019-01-31T02:23:03.002Z,8.80
2019-01-31T02:25:37.475Z,8.60
2019-01-31T02:28:30.423Z,8.90
2019-01-31T02:31:17.049Z,8.80
2019-01-31T02:33:57.815Z,8.80
2019-01-31T02:36:38.503Z,8.60
2019-01-31T02:39:28.516Z,8.30
2019-01-31T02:42:18.453Z,8.60
2019-01-31T02:44:59.539Z,8.90
2019-01-31T02:47:46.213Z,8.80
2019-01-31T02:50:21.145Z,8.70
2019-01-31T02:53:09.875Z,8.70
2019-01-31T02:55:58.578Z,8.70
2019-01-31T02:58:36.232Z,8.70
2019-01-31T03:01:13.842Z,8.80
2019-01-31T03:03:46.006Z,9.00
2019-01-31T03:06:23.527Z,9.00
2019-01-31T03:08:57.912Z,9.00
2019-01-31T03:12:24.671Z,8.90
2019-01-31T03:14:58.897Z,9.00
2019-01-31T03:18:03.297Z,8.90
2019-01-31T03:20:45.868Z,8.90
2019-01-31T03:23:30.165Z,9.00
2019-01-31T03:26:19.402Z,8.90
2019-01-31T03:29:19.665Z,8.90
2019-01-31T03:31:55.303Z,8.90
2019-01-31T03:34:50.729Z,8.90
2019-01-31T03:37:29.498Z,9.00
2019-01-31T03:40:22.842Z,8.90
2019-01-31T03:42:58.304Z,9.00
2019-01-31T03:45:47.516Z,8.70
2019-01-31T03:48:29.289Z,8.40
2019-01-31T03:51:25.846Z,8.30
2019-01-31T03:54:09.793Z,8.30
2019-01-31T03:56:46.422Z,8.40
2019-01-31T03:59:19.354Z,8.60
2019-01-31T04:01:57.565Z,8.60
2019-01-31T04:04:30.781Z,8.60
2019-01-31T04:07:00.460Z,8.70
2019-01-31T04:09:32.106Z,8.80
2019-01-31T04:12:01.518Z,8.80
2019-01-31T04:14:31.291Z,8.90
2019-01-31T04:17:00.646Z,8.80
2019-01-31T04:19:30.468Z,8.90
2019-01-31T04:21:59.825Z,8.90
2019-01-31T04:24:29.236Z,8.80
2019-01-31T04:26:58.983Z,8.80
2019-01-31T04:29:28.347Z,9.00
2019-01-31T04:31:57.741Z,8.90
2019-01-31T04:34:27.142Z,8.80
2019-01-31T04:36:56.529Z,8.80
2019-01-31T04:39:25.903Z,8.70
2019-01-31T04:41:55.282Z,8.70
2019-01-31T04:44:25.089Z,8.70
2019-01-31T04:46:54.457Z,8.60
2019-01-31T04:49:23.830Z,8.70
2019-01-31T04:51:53.260Z,8.70
2019-01-31T04:54:22.603Z,8.70
2019-01-31T04:56:52.424Z,8.60
2019-01-31T04:59:21.775Z,8.70
2019-01-31T05:01:51.189Z,8.80
2019-01-31T05:04:20.546Z,8.80
2019-01-31T05:06:49.953Z,8.70
2019-01-31T05:09:19.323Z,8.70
2019-01-31T05:11:48.721Z,8.70
2019-01-31T05:14:18.138Z,8.60
2019-01-31T05:16:47.551Z,8.70
2019-01-31T05:19:17.323Z,8.90
2019-01-31T05:21:46.714Z,8.70
2019-01-31T05:24:16.574Z,8.60
2019-01-31T05:26:45.969Z,8.70
2019-01-31T05:29:15.789Z,8.70
2019-01-31T05:31:45.198Z,8.80
2019-01-31T05:34:15.002Z,8.60
2019-01-31T05:36:44.764Z,8.70
2019-01-31T05:39:14.143Z,8.60
2019-01-31T05:41:43.555Z,8.50
2019-01-31T05:44:13.313Z,8.60
2019-01-31T05:46:42.729Z,8.50
2019-01-31T05:49:12.092Z,8.50
2019-01-31T05:51:41.841Z,8.60
2019-01-31T05:54:11.218Z,8.30
2019-01-31T05:56:40.942Z,8.30
2019-01-31T05:59:10.358Z,8.30
2019-01-31T06:01:39.736Z,8.30
2019-01-31T06:04:10.178Z,8.40
2019-01-31T06:06:41.020Z,8.30
2019-01-31T06:09:10.428Z,8.40
2019-01-31T06:11:40.245Z,8.50
2019-01-31T06:14:09.650Z,8.40
2019-01-31T06:16:39.448Z,8.30
2019-01-31T06:19:08.826Z,8.50
2019-01-31T06:21:38.233Z,8.50
2019-01-31T06:24:07.627Z,8.40
2019-01-31T06:26:37.000Z,8.40
2019-01-31T06:29:06.414Z,8.50
2019-01-31T06:31:36.849Z,8.40
2019-01-31T06:34:06.270Z,8.40
2019-01-31T06:36:35.994Z,8.40
2019-01-31T06:39:07.698Z,8.40
2019-01-31T06:41:37.082Z,8.40
2019-01-31T06:44:06.886Z,8.30
2019-01-31T06:46:36.237Z,8.20
2019-01-31T06:49:05.807Z,8.40
2019-01-31T06:51:35.160Z,8.40
2019-01-31T06:54:07.591Z,8.20
2019-01-31T06:56:36.165Z,8.10
2019-01-31T06:59:05.548Z,8.20
2019-01-31T07:01:34.920Z,8.30
2019-01-31T07:04:04.403Z,8.40
2019-01-31T07:06:33.764Z,8.50
2019-01-31T07:09:03.660Z,8.60
2019-01-31T07:11:34.909Z,8.50
2019-01-31T07:14:04.816Z,8.50
2019-01-31T07:16:34.279Z,8.50
2019-01-31T07:19:04.187Z,8.20
2019-01-31T07:21:33.587Z,7.90
2019-01-31T07:24:02.968Z,8.10
2019-01-31T07:26:32.362Z,8.40
2019-01-31T07:29:01.756Z,8.50
2019-01-31T07:31:32.587Z,8.50
2019-01-31T07:34:01.948Z,8.50
2019-01-31T07:36:31.355Z,8.60
2019-01-31T07:39:00.698Z,8.80
2019-01-31T07:41:40.618Z,9.00
2019-01-31T07:44:01.439Z,9.20
2019-01-31T07:46:30.848Z,9.30
2019-01-31T07:49:00.216Z,9.40
2019-01-31T07:51:29.596Z,9.60
2019-01-31T07:53:59.012Z,9.50
2019-01-31T07:56:28.405Z,9.50
2019-01-31T07:58:57.777Z,9.40
2019-01-31T08:01:27.572Z,9.40
2019-01-31T08:04:02.449Z,9.30
2019-01-31T08:06:27.953Z,9.20
2019-01-31T08:08:57.437Z,9.00
2019-01-31T08:11:27.216Z,9.30
2019-01-31T08:13:56.610Z,9.20
2019-01-31T08:16:27.453Z,9.20
2019-01-31T08:18:56.840Z,9.10
2019-01-31T08:21:26.566Z,9.00
2019-01-31T08:23:55.984Z,9.00
2019-01-31T08:26:25.785Z,8.50
2019-01-31T08:28:55.496Z,8.70
2019-01-31T08:31:24.893Z,9.10
2019-01-31T08:33:54.314Z,9.40
2019-01-31T08:36:23.709Z,9.40
2019-01-31T08:38:53.130Z,9.70
2019-01-31T08:41:22.904Z,9.70
2019-01-31T08:43:52.631Z,9.80
2019-01-31T09:31:55.757Z,13.10
2019-01-31T09:34:28.390Z,13.20
2019-01-31T09:37:09.550Z,15.10
2019-01-31T09:40:00.326Z,17.30
2019-01-31T09:42:48.209Z,19.30
2019-01-31T09:45:33.011Z,20.70
2019-01-31T09:48:08.397Z,20.60
2019-01-31T09:51:08.520Z,18.60
2019-01-31T09:54:03.681Z,19.10
2019-01-31T09:56:42.581Z,22.00
2019-01-31T09:59:18.143Z,22.30
2019-01-31T10:02:07.234Z,21.60
2019-01-31T10:04:46.410Z,21.60
2019-01-31T10:07:49.437Z,23.10
2019-01-31T10:10:22.398Z,21.50
2019-01-31T10:13:06.480Z,22.60
2019-01-31T10:15:39.213Z,23.30
2019-01-31T10:18:27.056Z,23.20
2019-01-31T10:21:11.793Z,22.50
2019-01-31T10:23:47.234Z,21.30
2019-01-31T10:26:25.424Z,22.70
2019-01-31T10:29:34.577Z,22.90
2019-01-31T10:32:21.924Z,22.80
2019-01-31T10:34:57.338Z,21.60
2019-01-31T10:37:35.841Z,26.20
2019-01-31T10:40:28.242Z,25.40
2019-01-31T10:43:19.248Z,25.90
2019-01-31T10:45:54.952Z,23.60
2019-01-31T10:48:30.367Z,22.90
2019-01-31T10:51:05.732Z,20.90
2019-01-31T10:53:53.402Z,19.20
2019-01-31T10:56:54.851Z,21.50
2019-01-31T10:59:45.415Z,21.00
2019-01-31T11:02:20.726Z,18.80
2019-01-31T11:04:56.134Z,21.00
2019-01-31T11:07:34.482Z,20.60
2019-01-31T11:10:23.824Z,20.80
2019-01-31T11:13:11.360Z,21.40
2019-01-31T11:16:02.297Z,20.00
2019-01-31T11:18:51.772Z,19.40
2019-01-31T11:21:42.194Z,17.60
2019-01-31T11:24:26.656Z,16.70
2019-01-31T11:26:59.262Z,16.30
2019-01-31T11:29:41.100Z,15.30
2019-01-31T11:32:48.412Z,14.90
2019-01-31T11:43:48.983Z,15.00
2019-01-31T11:48:59.033Z,14.10
2019-01-31T11:52:04.777Z,14.40
2019-01-31T11:54:46.032Z,14.60
2019-01-31T12:02:32.234Z,14.70
2019-01-31T12:05:01.659Z,14.50
2019-01-31T12:07:31.048Z,14.40
2019-01-31T12:10:00.454Z,14.20
2019-01-31T12:12:30.220Z,13.80
2019-01-31T12:14:59.631Z,13.70
2019-01-31T12:17:29.034Z,14.20
2019-01-31T12:19:58.756Z,14.00
2019-01-31T12:22:28.545Z,14.40
2019-01-31T17:25:50.361Z,18.30
2019-01-31T17:28:19.789Z,15.90
2019-01-31T17:30:49.170Z,14.30
2019-01-31T17:33:18.602Z,13.50
2019-01-31T17:35:48.262Z,13.10
2019-01-31T17:38:19.098Z,12.90
2019-01-31T17:40:48.471Z,12.80
2019-01-31T17:43:18.259Z,12.80
2019-01-31T17:46:04.993Z,12.70
2019-01-31T17:49:00.372Z,12.60
2019-01-31T17:51:30.457Z,12.70
2019-01-31T17:54:01.644Z,12.80
2019-01-31T17:56:30.890Z,12.70
2019-01-31T17:59:00.485Z,12.80
2019-01-31T18:01:29.882Z,12.80
2019-01-31T18:03:59.327Z,12.80
2019-01-31T18:06:28.725Z,12.80
2019-01-31T18:08:58.117Z,12.80
2019-01-31T18:11:27.529Z,12.80
2019-01-31T18:13:56.938Z,12.80
2019-01-31T18:16:26.394Z,12.80
2019-01-31T18:18:56.157Z,12.80
2019-01-31T18:21:25.543Z,12.90
2019-01-31T18:23:55.379Z,13.00
2019-01-31T18:26:25.119Z,13.00
2019-01-31T18:28:54.521Z,13.10
2019-01-31T18:31:24.311Z,13.10
2019-01-31T18:33:53.990Z,13.10
2019-01-31T18:36:23.387Z,13.20
2019-01-31T18:38:53.113Z,13.20
2019-01-31T18:41:22.511Z,13.20
2019-01-31T18:43:52.222Z,13.30
2019-01-31T18:46:21.599Z,13.20
2019-01-31T18:48:51.000Z,13.20
2019-01-31T18:51:20.421Z,13.20
2019-01-31T18:53:49.832Z,13.20
2019-01-31T18:56:19.316Z,13.20
2019-01-31T18:58:49.056Z,13.10
2019-01-31T19:01:18.469Z,13.20
2019-01-31T19:03:47.865Z,13.10
2019-01-31T19:06:17.231Z,13.10
2019-01-31T19:08:47.093Z,13.20
2019-01-31T19:11:16.895Z,13.20
2019-01-31T19:13:46.291Z,13.20
2019-01-31T19:16:15.658Z,13.20
2019-01-31T19:18:45.415Z,13.00
2019-01-31T19:21:14.813Z,13.10
2019-01-31T19:23:44.352Z,12.90
2019-01-31T19:26:13.736Z,12.90
2019-01-31T19:28:43.418Z,12.80
2019-01-31T19:31:13.863Z,12.80
2019-01-31T19:33:44.333Z,12.70
2019-01-31T19:36:13.731Z,12.70
2019-01-31T19:38:44.508Z,12.60
2019-01-31T19:41:13.881Z,12.60
2019-01-31T19:43:43.283Z,12.60
2019-01-31T19:46:16.680Z,12.60
2019-01-31T19:48:44.094Z,12.50
2019-01-31T19:51:13.847Z,12.60
2019-01-31T19:53:48.388Z,12.60
2019-01-31T19:56:18.059Z,12.40
2019-01-31T19:58:47.482Z,12.50
2019-01-31T20:01:17.241Z,12.50
2019-01-31T20:03:46.652Z,12.60
2019-01-31T20:06:16.049Z,12.60
2019-01-31T20:08:45.433Z,12.70
2019-01-31T20:11:14.847Z,12.80
2019-01-31T20:13:44.543Z,12.80
2019-01-31T20:16:16.114Z,12.70
2019-01-31T20:18:45.004Z,12.70
2019-01-31T20:21:14.745Z,12.80
2019-01-31T20:23:44.123Z,12.80
2019-01-31T20:26:14.055Z,12.90
2019-01-31T20:28:43.440Z,12.80
2019-01-31T20:31:12.861Z,12.70
2019-01-31T20:33:42.343Z,12.90
2019-01-31T20:36:12.151Z,13.00
2019-01-31T20:38:41.617Z,12.90
2019-01-31T20:41:11.067Z,13.00
2019-01-31T20:43:40.450Z,13.00
2019-01-31T20:46:09.875Z,13.00
2019-01-31T20:48:39.252Z,12.90
2019-01-31T20:51:08.629Z,13.00
2019-01-31T20:53:37.990Z,12.90
2019-01-31T20:56:07.412Z,12.90
2019-01-31T20:58:37.189Z,12.80
2019-01-31T21:01:06.769Z,12.80
2019-01-31T21:03:36.151Z,12.70
2019-01-31T21:06:05.534Z,12.60
2019-01-31T21:08:34.927Z,12.70
2019-01-31T21:11:04.324Z,12.60
2019-01-31T21:13:33.735Z,12.50
2019-01-31T21:16:03.126Z,12.50
2019-01-31T21:18:32.538Z,12.50
2019-01-31T21:21:01.933Z,12.50
2019-01-31T21:23:31.353Z,12.60
2019-01-31T21:26:00.738Z,12.50
2019-01-31T21:28:30.128Z,12.50
2019-01-31T21:30:59.488Z,12.50
2019-01-31T21:33:28.926Z,12.50
2019-01-31T21:35:58.317Z,12.40
2019-01-31T21:38:27.692Z,12.20
2019-01-31T21:40:57.110Z,12.30
2019-01-31T21:43:26.499Z,12.30
2019-01-31T21:45:56.170Z,12.30
2019-01-31T21:48:25.631Z,12.30
2019-01-31T21:50:55.385Z,12.30
2019-01-31T21:53:24.906Z,12.40
2019-01-31T21:55:54.765Z,12.30
2019-01-31T21:58:25.789Z,12.30
2019-01-31T22:00:55.183Z,12.40
2019-01-31T22:03:24.594Z,12.30
2019-01-31T22:05:53.974Z,12.30
2019-01-31T22:08:23.366Z,12.30
2019-01-31T22:10:52.789Z,12.30
2019-01-31T22:13:22.159Z,12.30
2019-01-31T22:15:51.549Z,12.30
2019-01-31T22:18:20.945Z,12.30
2019-01-31T22:20:50.337Z,12.20
2019-01-31T22:23:20.066Z,12.30
2019-01-31T22:25:49.882Z,12.20
2019-01-31T22:28:19.575Z,12.20
2019-01-31T22:30:48.968Z,12.10
2019-01-31T22:33:18.341Z,12.10
2019-01-31T22:35:47.933Z,12.10
2019-01-31T22:38:17.288Z,12.10
2019-01-31T22:40:46.716Z,12.00
2019-01-31T22:43:16.130Z,12.00
2019-01-31T22:45:45.506Z,12.00
2019-01-31T22:48:14.885Z,11.90
2019-01-31T22:50:44.276Z,12.00
2019-01-31T22:53:13.650Z,11.90
2019-01-31T22:55:43.030Z,12.00
2019-01-31T22:58:12.404Z,12.00
2019-01-31T23:00:49.346Z,12.20
2019-01-31T23:03:18.725Z,12.30
2019-01-31T23:05:48.119Z,12.40
2019-01-31T23:08:17.471Z,12.20
2019-01-31T23:10:46.880Z,12.30
2019-01-31T23:13:16.272Z,12.20
2019-01-31T23:15:45.661Z,12.30
2019-01-31T23:18:15.010Z,12.20
2019-01-31T23:20:44.572Z,12.20
2019-01-31T23:23:14.419Z,12.30
2019-01-31T23:25:43.892Z,12.40
2019-01-31T23:28:13.364Z,12.50
2019-01-31T23:30:42.759Z,12.50
2019-01-31T23:33:12.138Z,12.50
2019-01-31T23:35:42.607Z,12.50
2019-01-31T23:38:12.020Z,12.50
2019-01-31T23:40:41.394Z,12.50
2019-01-31T23:43:11.196Z,12.60
2019-01-31T23:45:40.595Z,12.60
2019-01-31T23:48:09.992Z,12.60
2019-01-31T23:50:39.392Z,12.60
2019-01-31T23:53:08.804Z,12.60
2019-01-31T23:55:38.215Z,12.60
2019-01-31T23:58:07.612Z,12.70
